sensor_id;sensor_type;location;lat;lon;timestamp;pressure;altitude;pressure_sealevel;temperature;humidity
19843;BME280;10082;51.038;6.992;2023-04-06T00:01:45;112171.53;;;-144.33;100.00
19843;BME280;10082;51.038;6.992;2023-04-06T00:04:13;112171.53;;;-144.33;100.00
19843;BME280;10082;51.038;6.992;2023-04-06T00:06:43;112171.53;;;-144.33;100.00
19843;BME280;10082;51.038;6.992;2023-04-06T00:09:11;112171.53;;;-144.33;100.00
19843;BME280;10082;51.038;6.992;2023-04-06T00:11:38;112171.53;;;-144.33;100.00
19843;BME280;10082;51.038;6.992;2023-04-06T00:14:06;112171.53;;;-144.33;100.00
19843;BME280;10082;51.038;6.992;2023-04-06T00:16:33;112171.53;;;-144.33;100.00
19843;BME280;10082;51.038;6.992;2023-04-06T00:19:01;112171.53;;;-144.33;100.00
19843;BME280;10082;51.038;6.992;2023-04-06T00:21:28;112171.53;;;-144.33;100.00
19843;BME280;10082;51.038;6.992;2023-04-06T00:23:58;112171.53;;;-144.33;100.00
19843;BME280;10082;51.038;6.992;2023-04-06T00:26:26;112171.53;;;-144.33;100.00
19843;BME280;10082;51.038;6.992;2023-04-06T00:28:54;112171.53;;;-144.33;100.00
19843;BME280;10082;51.038;6.992;2023-04-06T00:31:22;112171.53;;;-144.33;100.00
19843;BME280;10082;51.038;6.992;2023-04-06T00:33:50;112171.53;;;-144.33;100.00
19843;BME280;10082;51.038;6.992;2023-04-06T00:36:17;112171.53;;;-144.33;100.00
19843;BME280;10082;51.038;6.992;2023-04-06T00:38:45;112171.53;;;-144.33;100.00
19843;BME280;10082;51.038;6.992;2023-04-06T00:41:14;112171.53;;;-144.33;100.00
19843;BME280;10082;51.038;6.992;2023-04-06T00:43:41;112171.53;;;-144.33;100.00
19843;BME280;10082;51.038;6.992;2023-04-06T00:46:09;112171.53;;;-144.33;100.00
19843;BME280;10082;51.038;6.992;2023-04-06T00:48:36;112171.53;;;-144.33;100.00
19843;BME280;10082;51.038;6.992;2023-04-06T00:51:04;112171.53;;;-144.33;100.00
19843;BME280;10082;51.038;6.992;2023-04-06T00:53:32;112171.53;;;-144.33;100.00
19843;BME280;10082;51.038;6.992;2023-04-06T00:56:01;112171.53;;;-144.33;100.00
19843;BME280;10082;51.038;6.992;2023-04-06T00:58:35;112171.53;;;-144.33;100.00
19843;BME280;10082;51.038;6.992;2023-04-06T01:01:06;112171.53;;;-144.33;100.00
19843;BME280;10082;51.038;6.992;2023-04-06T01:03:34;112171.53;;;-144.33;100.00
19843;BME280;10082;51.038;6.992;2023-04-06T01:06:04;112171.53;;;-144.33;100.00
19843;BME280;10082;51.038;6.992;2023-04-06T01:08:36;112171.53;;;-144.33;100.00
19843;BME280;10082;51.038;6.992;2023-04-06T01:11:14;112171.53;;;-144.33;100.00
19843;BME280;10082;51.038;6.992;2023-04-06T01:13:43;112171.53;;;-144.33;100.00
19843;BME280;10082;51.038;6.992;2023-04-06T01:16:19;112171.53;;;-144.33;100.00
19843;BME280;10082;51.038;6.992;2023-04-06T01:18:59;112171.53;;;-144.33;100.00
19843;BME280;10082;51.038;6.992;2023-04-06T01:21:30;112171.53;;;-144.33;100.00
19843;BME280;10082;51.038;6.992;2023-04-06T01:24:14;112171.53;;;-144.33;100.00
19843;BME280;10082;51.038;6.992;2023-04-06T01:26:55;112171.53;;;-144.33;100.00
19843;BME280;10082;51.038;6.992;2023-04-06T01:29:25;112171.53;;;-144.33;100.00
19843;BME280;10082;51.038;6.992;2023-04-06T01:31:53;112171.53;;;-144.33;100.00
19843;BME280;10082;51.038;6.992;2023-04-06T01:34:26;112171.53;;;-144.33;100.00
19843;BME280;10082;51.038;6.992;2023-04-06T01:36:55;112171.53;;;-144.33;100.00
19843;BME280;10082;51.038;6.992;2023-04-06T01:39:29;112171.53;;;-144.33;100.00
19843;BME280;10082;51.038;6.992;2023-04-06T01:41:59;112171.53;;;-144.33;100.00
19843;BME280;10082;51.038;6.992;2023-04-06T01:44:27;112171.53;;;-144.33;100.00
19843;BME280;10082;51.038;6.992;2023-04-06T01:47:05;112171.53;;;-144.33;100.00
19843;BME280;10082;51.038;6.992;2023-04-06T01:49:32;112171.53;;;-144.33;100.00
19843;BME280;10082;51.038;6.992;2023-04-06T01:51:59;112171.53;;;-144.33;100.00
19843;BME280;10082;51.038;6.992;2023-04-06T01:54:32;112171.53;;;-144.33;100.00
19843;BME280;10082;51.038;6.992;2023-04-06T01:57:13;112171.53;;;-144.33;100.00
19843;BME280;10082;51.038;6.992;2023-04-06T01:59:48;112171.53;;;-144.33;100.00
19843;BME280;10082;51.038;6.992;2023-04-06T02:02:26;112171.53;;;-144.33;100.00
19843;BME280;10082;51.038;6.992;2023-04-06T02:05:00;112171.53;;;-144.33;100.00
19843;BME280;10082;51.038;6.992;2023-04-06T02:07:28;112171.53;;;-144.33;100.00
19843;BME280;10082;51.038;6.992;2023-04-06T02:09:58;112171.53;;;-144.33;100.00
19843;BME280;10082;51.038;6.992;2023-04-06T02:12:33;112171.53;;;-144.33;100.00
19843;BME280;10082;51.038;6.992;2023-04-06T02:15:01;112171.53;;;-144.33;100.00
19843;BME280;10082;51.038;6.992;2023-04-06T02:17:29;112171.53;;;-144.33;100.00
19843;BME280;10082;51.038;6.992;2023-04-06T02:19:56;112171.53;;;-144.33;100.00
19843;BME280;10082;51.038;6.992;2023-04-06T02:22:24;112171.53;;;-144.33;100.00
19843;BME280;10082;51.038;6.992;2023-04-06T02:24:51;112171.53;;;-144.33;100.00
19843;BME280;10082;51.038;6.992;2023-04-06T02:27:20;112171.53;;;-144.33;100.00
19843;BME280;10082;51.038;6.992;2023-04-06T02:29:47;112171.53;;;-144.33;100.00
19843;BME280;10082;51.038;6.992;2023-04-06T02:32:18;112171.53;;;-144.33;100.00
19843;BME280;10082;51.038;6.992;2023-04-06T02:34:47;112171.53;;;-144.33;100.00
19843;BME280;10082;51.038;6.992;2023-04-06T02:37:16;112171.53;;;-144.33;100.00
19843;BME280;10082;51.038;6.992;2023-04-06T02:39:43;112171.53;;;-144.33;100.00
19843;BME280;10082;51.038;6.992;2023-04-06T02:42:10;112171.53;;;-144.33;100.00
19843;BME280;10082;51.038;6.992;2023-04-06T02:44:42;112171.53;;;-144.33;100.00
19843;BME280;10082;51.038;6.992;2023-04-06T02:47:10;112171.53;;;-144.33;100.00
19843;BME280;10082;51.038;6.992;2023-04-06T02:49:40;112171.53;;;-144.33;100.00
19843;BME280;10082;51.038;6.992;2023-04-06T02:52:07;112171.53;;;-144.33;100.00
19843;BME280;10082;51.038;6.992;2023-04-06T02:54:35;112171.53;;;-144.33;100.00
19843;BME280;10082;51.038;6.992;2023-04-06T02:57:03;110529.28;;;-144.33;100.00
19843;BME280;10082;51.038;6.992;2023-04-06T02:59:38;107238.69;;;-144.33;100.00
19843;BME280;10082;51.038;6.992;2023-04-06T03:02:20;105130.19;;;-144.33;100.00
19843;BME280;10082;51.038;6.992;2023-04-06T03:04:50;102167.22;;;-144.33;100.00
19843;BME280;10082;51.038;6.992;2023-04-06T03:07:24;99053.97;;;-144.33;100.00
19843;BME280;10082;51.038;6.992;2023-04-06T03:09:51;98026.75;;;-144.33;100.00
19843;BME280;10082;51.038;6.992;2023-04-06T03:12:20;96999.81;;;-144.33;100.00
19843;BME280;10082;51.038;6.992;2023-04-06T03:15:17;94177.09;;;-144.33;100.00
19843;BME280;10082;51.038;6.992;2023-04-06T03:17:51;91356.31;;;-144.33;100.00
19843;BME280;10082;51.038;6.992;2023-04-06T03:20:31;87000.84;;;-144.33;100.00
19843;BME280;10082;51.038;6.992;2023-04-06T03:22:59;84441.00;;;-144.33;100.00
19843;BME280;10082;51.038;6.992;2023-04-06T03:25:30;81627.03;;;-144.33;100.00
19843;BME280;10082;51.038;6.992;2023-04-06T03:28:03;79070.59;;;-144.33;100.00
19843;BME280;10082;51.038;6.992;2023-04-06T03:30:34;76005.03;;;-144.33;100.00
19843;BME280;10082;51.038;6.992;2023-04-06T03:33:08;74473.13;;;-144.33;100.00
19843;BME280;10082;51.038;6.992;2023-04-06T03:35:43;73196.97;;;-144.33;100.00
19843;BME280;10082;51.038;6.992;2023-04-06T03:38:11;71666.16;;;-144.33;100.00
19843;BME280;10082;51.038;6.992;2023-04-06T03:40:38;70645.94;;;-144.33;100.00
19843;BME280;10082;51.038;6.992;2023-04-06T03:43:05;68861.16;;;-144.33;100.00
19843;BME280;10082;51.038;6.992;2023-04-06T03:45:35;66567.63;;;-144.33;100.00
19843;BME280;10082;51.038;6.992;2023-04-06T03:48:03;64530.03;;;-144.33;100.00
19843;BME280;10082;51.038;6.992;2023-04-06T03:50:35;63002.53;;;-144.33;100.00
19843;BME280;10082;51.038;6.992;2023-04-06T03:53:02;61475.59;;;-144.33;100.00
19843;BME280;10082;51.038;6.992;2023-04-06T03:55:29;60966.75;;;-144.33;100.00
19843;BME280;10082;51.038;6.992;2023-04-06T03:57:56;59186.31;;;-144.33;100.00
19843;BME280;10082;51.038;6.992;2023-04-06T04:00:24;58169.28;;;-144.33;100.00
19843;BME280;10082;51.038;6.992;2023-04-06T04:02:54;58169.28;;;-144.33;100.00
19843;BME280;10082;51.038;6.992;2023-04-06T04:05:21;57152.50;;;-144.33;100.00
19843;BME280;10082;51.038;6.992;2023-04-06T04:07:53;56390.09;;;-144.33;100.00
19843;BME280;10082;51.038;6.992;2023-04-06T04:10:24;54865.69;;;-144.33;100.00
19843;BME280;10082;51.038;6.992;2023-04-06T04:12:52;53341.91;;;-144.33;100.00
19843;BME280;10082;51.038;6.992;2023-04-06T04:15:19;52326.38;;;-144.33;100.00
19843;BME280;10082;51.038;6.992;2023-04-06T04:17:47;52072.53;;;-144.33;100.00
19843;BME280;10082;51.038;6.992;2023-04-06T04:20:16;51818.69;;;-144.33;100.00
19843;BME280;10082;51.038;6.992;2023-04-06T04:22:43;51564.88;;;-144.33;100.00
19843;BME280;10082;51.038;6.992;2023-04-06T04:25:13;50549.78;;;-144.33;100.00
19843;BME280;10082;51.038;6.992;2023-04-06T04:27:45;48774.03;;;-144.33;100.00
19843;BME280;10082;51.038;6.992;2023-04-06T04:30:13;48013.22;;;-144.33;100.00
19843;BME280;10082;51.038;6.992;2023-04-06T04:32:41;47252.56;;;-144.33;100.00
19843;BME280;10082;51.038;6.992;2023-04-06T04:35:09;46999.06;;;-144.33;100.00
19843;BME280;10082;51.038;6.992;2023-04-06T04:37:41;46238.59;;;-144.33;100.00
19843;BME280;10082;51.038;6.992;2023-04-06T04:40:12;44971.50;;;-144.33;100.00
19843;BME280;10082;51.038;6.992;2023-04-06T04:42:48;44464.75;;;-144.33;100.00
19843;BME280;10082;51.038;6.992;2023-04-06T04:45:23;43198.22;;;-144.33;100.00
19843;BME280;10082;51.038;6.992;2023-04-06T04:47:51;41932.09;;;-144.33;100.00
19843;BME280;10082;51.038;6.992;2023-04-06T04:50:21;40919.50;;;-144.33;100.00
19843;BME280;10082;51.038;6.992;2023-04-06T04:52:53;40160.22;;;-144.33;100.00
19843;BME280;10082;51.038;6.992;2023-04-06T04:55:25;39148.06;;;-144.33;100.00
19843;BME280;10082;51.038;6.992;2023-04-06T04:57:56;38136.16;;;-144.33;100.00
19843;BME280;10082;51.038;6.992;2023-04-06T05:00:41;37377.41;;;-144.33;100.00
19843;BME280;10082;51.038;6.992;2023-04-06T05:03:08;36618.81;;;-144.33;100.00
19843;BME280;10082;51.038;6.992;2023-04-06T05:05:39;35607.56;;;-144.33;100.00
19843;BME280;10082;51.038;6.992;2023-04-06T05:08:06;35354.81;;;-144.33;100.00
19843;BME280;10082;51.038;6.992;2023-04-06T05:10:44;34596.59;;;-144.33;100.00
19843;BME280;10082;51.038;6.992;2023-04-06T05:13:12;33333.25;;;-144.33;100.00
19843;BME280;10082;51.038;6.992;2023-04-06T05:15:40;33585.88;;;-144.33;100.00
19843;BME280;10082;51.038;6.992;2023-04-06T05:18:18;33585.88;;;-144.33;100.00
19843;BME280;10082;51.038;6.992;2023-04-06T05:20:51;33585.88;;;-144.33;100.00
19843;BME280;10082;51.038;6.992;2023-04-06T05:23:24;34091.19;;;-144.33;100.00
19843;BME280;10082;51.038;6.992;2023-04-06T05:25:54;32828.00;;;-144.33;100.00
19843;BME280;10082;51.038;6.992;2023-04-06T05:28:22;31312.72;;;-144.33;100.00
19843;BME280;10082;51.038;6.992;2023-04-06T05:30:49;31312.72;;;-144.33;100.00
19843;BME280;10082;51.038;6.992;2023-04-06T05:33:17;32070.28;;;-144.33;100.00
19843;BME280;10082;51.038;6.992;2023-04-06T05:36:01;32828.00;;;-144.33;100.00
19843;BME280;10082;51.038;6.992;2023-04-06T05:38:29;33838.53;;;-144.33;100.00
19843;BME280;10082;51.038;6.992;2023-04-06T05:41:13;35607.56;;;-144.33;100.00
19843;BME280;10082;51.038;6.992;2023-04-06T05:43:41;37377.41;;;-144.33;100.00
19843;BME280;10082;51.038;6.992;2023-04-06T05:46:09;38642.06;;;-144.33;100.00
19843;BME280;10082;51.038;6.992;2023-04-06T05:48:37;40919.50;;;-144.33;100.00
19843;BME280;10082;51.038;6.992;2023-04-06T05:51:04;43958.09;;;-144.33;100.00
19843;BME280;10082;51.038;6.992;2023-04-06T05:53:41;47506.09;;;-144.33;100.00
19843;BME280;10082;51.038;6.992;2023-04-06T05:56:08;51311.09;;;-144.33;100.00
19843;BME280;10082;51.038;6.992;2023-04-06T05:58:37;55373.75;;;-144.33;100.00
19843;BME280;10082;51.038;6.992;2023-04-06T06:01:07;60457.97;;;-144.33;100.00
19843;BME280;10082;51.038;6.992;2023-04-06T06:03:39;65548.69;;;-144.33;100.00
19843;BME280;10082;51.038;6.992;2023-04-06T06:06:07;75239.00;;;-144.33;100.00
19843;BME280;10082;51.038;6.992;2023-04-06T06:08:58;88025.25;;;-144.33;100.00
19843;BME280;10082;51.038;6.992;2023-04-06T06:11:28;100621.34;;;-144.33;100.00
19843;BME280;10082;51.038;6.992;2023-04-06T06:13:57;110917.66;;;-144.33;100.00
19843;BME280;10082;51.038;6.992;2023-04-06T06:16:24;112171.53;;;-144.33;100.00
19843;BME280;10082;51.038;6.992;2023-04-06T06:19:17;112171.53;;;-144.33;100.00
19843;BME280;10082;51.038;6.992;2023-04-06T06:21:45;112171.53;;;-144.33;100.00
19843;BME280;10082;51.038;6.992;2023-04-06T06:24:12;112171.53;;;-144.33;100.00
19843;BME280;10082;51.038;6.992;2023-04-06T06:26:39;112171.53;;;-144.33;100.00
19843;BME280;10082;51.038;6.992;2023-04-06T06:29:11;112171.53;;;-144.33;100.00
19843;BME280;10082;51.038;6.992;2023-04-06T06:31:39;112171.53;;;-144.33;100.00
19843;BME280;10082;51.038;6.992;2023-04-06T06:34:06;112171.53;;;-144.33;100.00
19843;BME280;10082;51.038;6.992;2023-04-06T06:36:35;112171.53;;;-144.33;100.00
19843;BME280;10082;51.038;6.992;2023-04-06T06:39:05;112171.53;;;-144.33;100.00
19843;BME280;10082;51.038;6.992;2023-04-06T06:41:33;112171.53;;;-144.33;100.00
19843;BME280;10082;51.038;6.992;2023-04-06T06:44:00;112171.53;;;-144.33;100.00
19843;BME280;10082;51.038;6.992;2023-04-06T06:46:29;112171.53;;;-144.33;100.00
19843;BME280;10082;51.038;6.992;2023-04-06T06:48:58;112171.53;;;-144.33;100.00
19843;BME280;10082;51.038;6.992;2023-04-06T06:51:28;112171.53;;;-144.33;100.00
19843;BME280;10082;51.038;6.992;2023-04-06T06:54:00;112171.53;;;-144.33;98.32
19843;BME280;10082;51.038;6.992;2023-04-06T06:56:28;112171.53;;;-144.33;95.03
19843;BME280;10082;51.038;6.992;2023-04-06T06:58:55;112171.53;;;-144.33;92.11
19843;BME280;10082;51.038;6.992;2023-04-06T07:01:23;112171.53;;;-144.33;90.79
19843;BME280;10082;51.038;6.992;2023-04-06T07:03:53;112171.53;;;-144.33;88.40
19843;BME280;10082;51.038;6.992;2023-04-06T07:06:21;112171.53;;;-144.33;87.87
19843;BME280;10082;51.038;6.992;2023-04-06T07:08:51;112171.53;;;-144.33;84.54
19843;BME280;10082;51.038;6.992;2023-04-06T07:11:19;112171.53;;;-144.33;82.27
19843;BME280;10082;51.038;6.992;2023-04-06T07:13:47;112171.53;;;-144.33;80.53
19843;BME280;10082;51.038;6.992;2023-04-06T07:16:15;112171.53;;;-144.33;78.66
19843;BME280;10082;51.038;6.992;2023-04-06T07:18:43;112171.53;;;-144.33;76.26
19843;BME280;10082;51.038;6.992;2023-04-06T07:21:13;112171.53;;;-144.33;73.04
19843;BME280;10082;51.038;6.992;2023-04-06T07:23:42;112171.53;;;-144.33;69.82
19843;BME280;10082;51.038;6.992;2023-04-06T07:26:10;112171.53;;;-144.33;67.93
19843;BME280;10082;51.038;6.992;2023-04-06T07:28:38;112171.53;;;-144.33;65.43
19843;BME280;10082;51.038;6.992;2023-04-06T07:31:11;112171.53;;;-144.33;62.26
19843;BME280;10082;51.038;6.992;2023-04-06T07:33:39;112171.53;;;-144.33;60.23
19843;BME280;10082;51.038;6.992;2023-04-06T07:36:07;112171.53;;;-144.33;59.00
19843;BME280;10082;51.038;6.992;2023-04-06T07:38:37;112171.53;;;-144.33;57.03
19843;BME280;10082;51.038;6.992;2023-04-06T07:41:05;112171.53;;;-144.33;56.01
19843;BME280;10082;51.038;6.992;2023-04-06T07:43:34;112171.53;;;-144.33;54.05
19843;BME280;10082;51.038;6.992;2023-04-06T07:46:02;112171.53;;;-144.33;51.88
19843;BME280;10082;51.038;6.992;2023-04-06T07:48:30;112171.53;;;-144.33;52.37
19843;BME280;10082;51.038;6.992;2023-04-06T07:51:01;112171.53;;;-144.33;52.40
19843;BME280;10082;51.038;6.992;2023-04-06T07:53:29;112171.53;;;-144.33;52.41
19843;BME280;10082;51.038;6.992;2023-04-06T07:56:00;112171.53;;;-144.33;52.01
19843;BME280;10082;51.038;6.992;2023-04-06T07:58:28;112171.53;;;-144.33;52.44
19843;BME280;10082;51.038;6.992;2023-04-06T08:01:00;112171.53;;;-144.33;51.97
19843;BME280;10082;51.038;6.992;2023-04-06T08:03:28;112171.53;;;-144.33;52.11
19843;BME280;10082;51.038;6.992;2023-04-06T08:05:55;112171.53;;;-144.33;50.80
19843;BME280;10082;51.038;6.992;2023-04-06T08:08:23;112171.53;;;-144.33;51.78
19843;BME280;10082;51.038;6.992;2023-04-06T08:10:50;112171.53;;;-144.33;51.30
19843;BME280;10082;51.038;6.992;2023-04-06T08:13:20;112171.53;;;-144.33;50.47
19843;BME280;10082;51.038;6.992;2023-04-06T08:15:48;112171.53;;;-144.33;49.33
19843;BME280;10082;51.038;6.992;2023-04-06T08:18:15;112171.53;;;-144.33;48.35
19843;BME280;10082;51.038;6.992;2023-04-06T08:20:43;112171.53;;;-144.33;46.54
19843;BME280;10082;51.038;6.992;2023-04-06T08:23:10;112171.53;;;-144.33;47.10
19843;BME280;10082;51.038;6.992;2023-04-06T08:25:38;112171.53;;;-144.33;45.65
19843;BME280;10082;51.038;6.992;2023-04-06T08:28:12;112171.53;;;-144.33;45.74
19843;BME280;10082;51.038;6.992;2023-04-06T08:30:45;112171.53;;;-144.33;45.43
19843;BME280;10082;51.038;6.992;2023-04-06T08:33:13;112171.53;;;-144.33;44.87
19843;BME280;10082;51.038;6.992;2023-04-06T08:35:41;112171.53;;;-144.33;43.00
19843;BME280;10082;51.038;6.992;2023-04-06T08:38:08;112171.53;;;-144.33;43.07
19843;BME280;10082;51.038;6.992;2023-04-06T08:40:36;112171.53;;;-144.33;43.98
19843;BME280;10082;51.038;6.992;2023-04-06T08:43:06;112171.53;;;-144.33;42.86
19843;BME280;10082;51.038;6.992;2023-04-06T08:45:35;112171.53;;;-144.33;42.54
19843;BME280;10082;51.038;6.992;2023-04-06T08:48:06;112171.53;;;-144.33;41.45
19843;BME280;10082;51.038;6.992;2023-04-06T08:50:35;112171.53;;;-144.33;40.99
19843;BME280;10082;51.038;6.992;2023-04-06T08:53:03;112171.53;;;-144.33;41.09
19843;BME280;10082;51.038;6.992;2023-04-06T08:55:31;112171.53;;;-144.33;42.20
19843;BME280;10082;51.038;6.992;2023-04-06T08:58:00;112171.53;;;-144.33;41.06
19843;BME280;10082;51.038;6.992;2023-04-06T09:00:32;112171.53;;;-144.33;40.68
19843;BME280;10082;51.038;6.992;2023-04-06T09:03:01;112171.53;;;-144.33;39.63
19843;BME280;10082;51.038;6.992;2023-04-06T09:05:33;112171.53;;;-144.33;39.08
19843;BME280;10082;51.038;6.992;2023-04-06T09:08:10;112171.53;;;-144.33;39.59
19843;BME280;10082;51.038;6.992;2023-04-06T09:10:40;112171.53;;;-144.33;38.75
19843;BME280;10082;51.038;6.992;2023-04-06T09:13:09;112171.53;;;-144.33;39.38
19843;BME280;10082;51.038;6.992;2023-04-06T09:15:37;112171.53;;;-144.33;38.53
19843;BME280;10082;51.038;6.992;2023-04-06T09:18:05;112171.53;;;-144.33;39.25
19843;BME280;10082;51.038;6.992;2023-04-06T09:20:38;112171.53;;;-144.33;40.45
19843;BME280;10082;51.038;6.992;2023-04-06T09:23:17;112171.53;;;-144.33;40.86
19843;BME280;10082;51.038;6.992;2023-04-06T09:25:46;112171.53;;;-144.33;41.32
19843;BME280;10082;51.038;6.992;2023-04-06T09:28:14;112171.53;;;-144.33;39.49
19843;BME280;10082;51.038;6.992;2023-04-06T09:30:48;112171.53;;;-144.33;38.31
19843;BME280;10082;51.038;6.992;2023-04-06T09:33:22;112171.53;;;-144.33;39.50
19843;BME280;10082;51.038;6.992;2023-04-06T09:36:01;112171.53;;;-144.33;39.95
19843;BME280;10082;51.038;6.992;2023-04-06T09:38:37;112171.53;;;-144.33;39.76
19843;BME280;10082;51.038;6.992;2023-04-06T09:41:20;112171.53;;;-144.33;38.94
19843;BME280;10082;51.038;6.992;2023-04-06T09:43:48;112171.53;;;-144.33;38.79
19843;BME280;10082;51.038;6.992;2023-04-06T09:46:16;112171.53;;;-144.33;39.53
19843;BME280;10082;51.038;6.992;2023-04-06T09:48:45;112171.53;;;-144.33;39.08
19843;BME280;10082;51.038;6.992;2023-04-06T09:51:18;112171.53;;;-144.33;39.83
19843;BME280;10082;51.038;6.992;2023-04-06T09:53:52;112171.53;;;-144.33;39.44
19843;BME280;10082;51.038;6.992;2023-04-06T09:56:31;112171.53;;;-144.33;39.88
19843;BME280;10082;51.038;6.992;2023-04-06T09:59:05;112171.53;;;-144.33;39.84
19843;BME280;10082;51.038;6.992;2023-04-06T10:01:35;112171.53;;;-144.33;40.52
19843;BME280;10082;51.038;6.992;2023-04-06T10:04:15;112171.53;;;-144.33;39.90
19843;BME280;10082;51.038;6.992;2023-04-06T10:06:52;112171.53;;;-144.33;40.14
19843;BME280;10082;51.038;6.992;2023-04-06T10:09:25;112171.53;;;-144.33;39.06
19843;BME280;10082;51.038;6.992;2023-04-06T10:12:02;112171.53;;;-144.33;38.67
19843;BME280;10082;51.038;6.992;2023-04-06T10:14:31;112171.53;;;-144.33;37.74
19843;BME280;10082;51.038;6.992;2023-04-06T10:17:02;112171.53;;;-144.33;38.37
19843;BME280;10082;51.038;6.992;2023-04-06T10:19:49;112171.53;;;-144.33;37.67
19843;BME280;10082;51.038;6.992;2023-04-06T10:22:25;112171.53;;;-144.33;37.98
19843;BME280;10082;51.038;6.992;2023-04-06T10:24:54;112171.53;;;-144.33;38.07
19843;BME280;10082;51.038;6.992;2023-04-06T10:27:28;112171.53;;;-144.33;37.29
19843;BME280;10082;51.038;6.992;2023-04-06T10:30:02;112171.53;;;-144.33;38.56
19843;BME280;10082;51.038;6.992;2023-04-06T10:32:37;112171.53;;;-144.33;39.01
19843;BME280;10082;51.038;6.992;2023-04-06T10:35:09;112171.53;;;-144.33;38.32
19843;BME280;10082;51.038;6.992;2023-04-06T10:37:50;112171.53;;;-144.33;38.87
19843;BME280;10082;51.038;6.992;2023-04-06T10:40:19;112171.53;;;-144.33;38.18
19843;BME280;10082;51.038;6.992;2023-04-06T10:42:48;112171.53;;;-144.33;38.63
19843;BME280;10082;51.038;6.992;2023-04-06T10:45:22;112171.53;;;-144.33;39.29
19843;BME280;10082;51.038;6.992;2023-04-06T10:47:52;112171.53;;;-144.33;37.89
19843;BME280;10082;51.038;6.992;2023-04-06T10:50:20;112171.53;;;-144.33;37.72
19843;BME280;10082;51.038;6.992;2023-04-06T10:53:01;112171.53;;;-144.33;37.61
19843;BME280;10082;51.038;6.992;2023-04-06T10:55:29;112171.53;;;-144.33;39.40
19843;BME280;10082;51.038;6.992;2023-04-06T10:57:59;112171.53;;;-144.33;38.68
19843;BME280;10082;51.038;6.992;2023-04-06T11:00:26;112171.53;;;-144.33;38.98
19843;BME280;10082;51.038;6.992;2023-04-06T11:02:59;112171.53;;;-144.33;39.01
19843;BME280;10082;51.038;6.992;2023-04-06T11:05:27;112171.53;;;-144.33;39.41
19843;BME280;10082;51.038;6.992;2023-04-06T11:07:56;112171.53;;;-144.33;39.14
19843;BME280;10082;51.038;6.992;2023-04-06T11:10:24;112171.53;;;-144.33;39.13
19843;BME280;10082;51.038;6.992;2023-04-06T11:12:53;112171.53;;;-144.33;39.83
19843;BME280;10082;51.038;6.992;2023-04-06T11:15:35;112171.53;;;-144.33;39.53
19843;BME280;10082;51.038;6.992;2023-04-06T11:18:04;112171.53;;;-144.33;40.14
19843;BME280;10082;51.038;6.992;2023-04-06T11:20:31;112171.53;;;-144.33;38.19
19843;BME280;10082;51.038;6.992;2023-04-06T11:22:59;112171.53;;;-144.33;38.25
19843;BME280;10082;51.038;6.992;2023-04-06T11:25:29;112171.53;;;-144.33;38.39
19843;BME280;10082;51.038;6.992;2023-04-06T11:27:58;112171.53;;;-144.33;38.14
19843;BME280;10082;51.038;6.992;2023-04-06T11:30:25;112171.53;;;-144.33;38.82
19843;BME280;10082;51.038;6.992;2023-04-06T11:33:00;112171.53;;;-144.33;37.82
19843;BME280;10082;51.038;6.992;2023-04-06T11:35:31;112171.53;;;-144.33;38.20
19843;BME280;10082;51.038;6.992;2023-04-06T11:38:03;112171.53;;;-144.33;38.67
19843;BME280;10082;51.038;6.992;2023-04-06T11:40:32;112171.53;;;-144.33;39.54
19843;BME280;10082;51.038;6.992;2023-04-06T11:43:06;112171.53;;;-144.33;39.09
19843;BME280;10082;51.038;6.992;2023-04-06T11:45:42;112171.53;;;-144.33;39.83
19843;BME280;10082;51.038;6.992;2023-04-06T11:48:17;112171.53;;;-144.33;40.67
19843;BME280;10082;51.038;6.992;2023-04-06T11:50:46;112171.53;;;-144.33;40.19
19843;BME280;10082;51.038;6.992;2023-04-06T11:53:14;112171.53;;;-144.33;40.33
19843;BME280;10082;51.038;6.992;2023-04-06T11:55:43;112171.53;;;-144.33;40.35
19843;BME280;10082;51.038;6.992;2023-04-06T11:58:12;112171.53;;;-144.33;40.35
19843;BME280;10082;51.038;6.992;2023-04-06T12:00:40;112171.53;;;-144.33;39.06
19843;BME280;10082;51.038;6.992;2023-04-06T12:03:11;112171.53;;;-144.33;39.17
19843;BME280;10082;51.038;6.992;2023-04-06T12:05:38;112171.53;;;-144.33;40.53
19843;BME280;10082;51.038;6.992;2023-04-06T12:08:09;112171.53;;;-144.33;40.76
19843;BME280;10082;51.038;6.992;2023-04-06T12:10:36;112171.53;;;-144.33;40.89
19843;BME280;10082;51.038;6.992;2023-04-06T12:13:06;112171.53;;;-144.33;41.66
19843;BME280;10082;51.038;6.992;2023-04-06T12:15:33;112171.53;;;-144.33;40.30
19843;BME280;10082;51.038;6.992;2023-04-06T12:18:01;112171.53;;;-144.33;41.08
19843;BME280;10082;51.038;6.992;2023-04-06T12:20:29;112171.53;;;-144.33;39.76
19843;BME280;10082;51.038;6.992;2023-04-06T12:22:57;112171.53;;;-144.33;39.93
19843;BME280;10082;51.038;6.992;2023-04-06T12:25:24;112171.53;;;-144.33;39.64
19843;BME280;10082;51.038;6.992;2023-04-06T12:27:51;112171.53;;;-144.33;40.24
19843;BME280;10082;51.038;6.992;2023-04-06T12:30:21;112171.53;;;-144.33;41.21
19843;BME280;10082;51.038;6.992;2023-04-06T12:32:50;112171.53;;;-144.33;40.71
19843;BME280;10082;51.038;6.992;2023-04-06T12:35:18;112171.53;;;-144.33;40.84
19843;BME280;10082;51.038;6.992;2023-04-06T12:37:46;112171.53;;;-144.33;40.99
19843;BME280;10082;51.038;6.992;2023-04-06T12:40:16;112171.53;;;-144.33;41.55
19843;BME280;10082;51.038;6.992;2023-04-06T12:42:44;112171.53;;;-144.33;41.98
19843;BME280;10082;51.038;6.992;2023-04-06T12:45:13;112171.53;;;-144.33;41.45